sensor_id;sensor_type;location;lat;lon;timestamp;temperature;humidity
43414;DHT22;29013;49.676;8.606;2022-08-14T00:02:17;24.5;60.8
43414;DHT22;29013;49.676;8.606;2022-08-14T00:07:44;24.4;61.3
43414;DHT22;29013;49.676;8.606;2022-08-14T00:13:11;24.4;62.2
43414;DHT22;29013;49.676;8.606;2022-08-14T00:18:40;24.3;62.4
43414;DHT22;29013;49.676;8.606;2022-08-14T00:24:05;24.2;62.9
43414;DHT22;29013;49.676;8.606;2022-08-14T00:29:27;24.2;63.3
43414;DHT22;29013;49.676;8.606;2022-08-14T00:34:53;24.2;63.8
43414;DHT22;29013;49.676;8.606;2022-08-14T00:40:20;24.2;63.7
43414;DHT22;29013;49.676;8.606;2022-08-14T00:45:46;24.1;64.2
43414;DHT22;29013;49.676;8.606;2022-08-14T00:51:14;24.0;63.3
43414;DHT22;29013;49.676;8.606;2022-08-14T00:56:38;24.0;64.7
43414;DHT22;29013;49.676;8.606;2022-08-14T01:02:09;23.9;64.7
43414;DHT22;29013;49.676;8.606;2022-08-14T01:07:36;23.8;65.2
43414;DHT22;29013;49.676;8.606;2022-08-14T01:13:02;23.7;66.3
43414;DHT22;29013;49.676;8.606;2022-08-14T01:18:29;23.7;66.3
43414;DHT22;29013;49.676;8.606;2022-08-14T01:23:53;23.6;66.1
43414;DHT22;29013;49.676;8.606;2022-08-14T01:29:21;23.6;66.4
43414;DHT22;29013;49.676;8.606;2022-08-14T01:34:47;23.5;66.2
43414;DHT22;29013;49.676;8.606;2022-08-14T01:40:13;23.4;66.6
43414;DHT22;29013;49.676;8.606;2022-08-14T01:45:34;23.3;66.5
43414;DHT22;29013;49.676;8.606;2022-08-14T01:51:00;23.1;66.5
43414;DHT22;29013;49.676;8.606;2022-08-14T01:56:25;22.8;67.3
43414;DHT22;29013;49.676;8.606;2022-08-14T02:01:49;22.7;66.6
43414;DHT22;29013;49.676;8.606;2022-08-14T02:07:15;22.5;67.2
43414;DHT22;29013;49.676;8.606;2022-08-14T02:12:39;22.4;67.9
43414;DHT22;29013;49.676;8.606;2022-08-14T02:18:06;22.3;68.0
43414;DHT22;29013;49.676;8.606;2022-08-14T02:23:34;22.2;69.5
43414;DHT22;29013;49.676;8.606;2022-08-14T02:29:03;22.1;70.0
43414;DHT22;29013;49.676;8.606;2022-08-14T02:34:23;22.0;68.7
43414;DHT22;29013;49.676;8.606;2022-08-14T02:39:48;21.8;67.9
43414;DHT22;29013;49.676;8.606;2022-08-14T02:45:17;21.6;69.2
43414;DHT22;29013;49.676;8.606;2022-08-14T02:50:46;21.4;70.0
43414;DHT22;29013;49.676;8.606;2022-08-14T02:56:14;21.0;70.5
43414;DHT22;29013;49.676;8.606;2022-08-14T03:01:39;20.9;71.5
43414;DHT22;29013;49.676;8.606;2022-08-14T03:07:05;20.9;70.9
43414;DHT22;29013;49.676;8.606;2022-08-14T03:12:30;20.9;71.4
43414;DHT22;29013;49.676;8.606;2022-08-14T03:17:52;20.6;73.6
43414;DHT22;29013;49.676;8.606;2022-08-14T03:23:15;20.5;72.7
43414;DHT22;29013;49.676;8.606;2022-08-14T03:28:41;20.3;74.6
43414;DHT22;29013;49.676;8.606;2022-08-14T03:34:03;20.0;76.2
43414;DHT22;29013;49.676;8.606;2022-08-14T03:39:27;20.0;76.0
43414;DHT22;29013;49.676;8.606;2022-08-14T03:44:52;19.9;75.6
43414;DHT22;29013;49.676;8.606;2022-08-14T03:50:18;19.9;77.3
43414;DHT22;29013;49.676;8.606;2022-08-14T03:55:44;19.7;78.5
43414;DHT22;29013;49.676;8.606;2022-08-14T04:01:11;19.5;78.8
43414;DHT22;29013;49.676;8.606;2022-08-14T04:06:34;19.7;78.5
43414;DHT22;29013;49.676;8.606;2022-08-14T04:12:00;19.6;78.9
43414;DHT22;29013;49.676;8.606;2022-08-14T04:17:25;19.5;79.3
43414;DHT22;29013;49.676;8.606;2022-08-14T04:22:49;19.6;79.3
43414;DHT22;29013;49.676;8.606;2022-08-14T04:28:16;19.5;82.5
43414;DHT22;29013;49.676;8.606;2022-08-14T04:33:40;19.5;80.4
43414;DHT22;29013;49.676;8.606;2022-08-14T04:39:07;19.7;81.5
43414;DHT22;29013;49.676;8.606;2022-08-14T04:44:31;19.7;80.9
43414;DHT22;29013;49.676;8.606;2022-08-14T04:49:56;19.6;82.3
43414;DHT22;29013;49.676;8.606;2022-08-14T04:55:21;19.6;83.0
43414;DHT22;29013;49.676;8.606;2022-08-14T05:00:48;19.5;84.6
43414;DHT22;29013;49.676;8.606;2022-08-14T05:06:12;19.7;83.5
43414;DHT22;29013;49.676;8.606;2022-08-14T05:11:39;19.7;84.9
43414;DHT22;29013;49.676;8.606;2022-08-14T05:17:06;19.9;85.1
43414;DHT22;29013;49.676;8.606;2022-08-14T05:22:28;20.0;86.5
43414;DHT22;29013;49.676;8.606;2022-08-14T05:27:50;20.1;87.6
43414;DHT22;29013;49.676;8.606;2022-08-14T05:33:16;20.3;88.7
43414;DHT22;29013;49.676;8.606;2022-08-14T05:38:43;20.4;87.9
43414;DHT22;29013;49.676;8.606;2022-08-14T05:44:10;20.7;89.7
43414;DHT22;29013;49.676;8.606;2022-08-14T05:49:36;20.8;90.2
43414;DHT22;29013;49.676;8.606;2022-08-14T05:55:02;20.9;90.3
43414;DHT22;29013;49.676;8.606;2022-08-14T06:00:25;21.0;91.5
43414;DHT22;29013;49.676;8.606;2022-08-14T06:05:51;21.1;91.7
43414;DHT22;29013;49.676;8.606;2022-08-14T06:11:13;21.3;92.0
43414;DHT22;29013;49.676;8.606;2022-08-14T06:16:39;21.6;91.5
43414;DHT22;29013;49.676;8.606;2022-08-14T06:22:06;21.8;91.6
43414;DHT22;29013;49.676;8.606;2022-08-14T06:27:38;22.1;90.6
43414;DHT22;29013;49.676;8.606;2022-08-14T06:33:03;22.4;89.3
43414;DHT22;29013;49.676;8.606;2022-08-14T06:38:25;22.9;88.6
43414;DHT22;29013;49.676;8.606;2022-08-14T06:43:52;23.4;87.3
43414;DHT22;29013;49.676;8.606;2022-08-14T06:49:14;23.9;83.4
43414;DHT22;29013;49.676;8.606;2022-08-14T06:54:38;24.3;82.1
43414;DHT22;29013;49.676;8.606;2022-08-14T07:00:03;24.7;80.1
43414;DHT22;29013;49.676;8.606;2022-08-14T07:05:30;25.2;76.6
43414;DHT22;29013;49.676;8.606;2022-08-14T07:10:54;25.6;75.0
43414;DHT22;29013;49.676;8.606;2022-08-14T07:16:20;25.9;73.7
43414;DHT22;29013;49.676;8.606;2022-08-14T07:21:53;26.3;72.6
43414;DHT22;29013;49.676;8.606;2022-08-14T07:27:19;26.8;70.8
43414;DHT22;29013;49.676;8.606;2022-08-14T07:32:47;27.3;69.0
43414;DHT22;29013;49.676;8.606;2022-08-14T07:38:20;27.8;67.9
43414;DHT22;29013;49.676;8.606;2022-08-14T07:43:47;27.9;65.8
43414;DHT22;29013;49.676;8.606;2022-08-14T07:49:20;28.3;65.1
43414;DHT22;29013;49.676;8.606;2022-08-14T07:54:50;28.5;63.5
43414;DHT22;29013;49.676;8.606;2022-08-14T08:00:19;29.0;62.8
43414;DHT22;29013;49.676;8.606;2022-08-14T08:05:40;29.3;62.4
43414;DHT22;29013;49.676;8.606;2022-08-14T08:11:35;29.6;61.8
43414;DHT22;29013;49.676;8.606;2022-08-14T08:17:07;30.0;59.2
43414;DHT22;29013;49.676;8.606;2022-08-14T08:22:37;30.0;58.2
43414;DHT22;29013;49.676;8.606;2022-08-14T08:28:05;30.0;57.2
43414;DHT22;29013;49.676;8.606;2022-08-14T08:33:34;30.0;56.9
43414;DHT22;29013;49.676;8.606;2022-08-14T08:39:02;30.4;56.0
43414;DHT22;29013;49.676;8.606;2022-08-14T08:44:32;30.5;57.0
43414;DHT22;29013;49.676;8.606;2022-08-14T08:49:57;30.8;54.3
43414;DHT22;29013;49.676;8.606;2022-08-14T08:55:30;30.6;56.4
43414;DHT22;29013;49.676;8.606;2022-08-14T09:00:57;30.5;54.1
43414;DHT22;29013;49.676;8.606;2022-08-14T09:06:24;30.5;53.6
43414;DHT22;29013;49.676;8.606;2022-08-14T09:11:52;30.8;55.6
43414;DHT22;29013;49.676;8.606;2022-08-14T09:17:19;31.2;54.3
43414;DHT22;29013;49.676;8.606;2022-08-14T09:22:46;31.2;53.2
43414;DHT22;29013;49.676;8.606;2022-08-14T09:28:13;31.5;50.6
43414;DHT22;29013;49.676;8.606;2022-08-14T09:33:50;31.4;49.1
43414;DHT22;29013;49.676;8.606;2022-08-14T09:39:18;31.6;50.4
43414;DHT22;29013;49.676;8.606;2022-08-14T09:44:54;32.0;49.6
43414;DHT22;29013;49.676;8.606;2022-08-14T09:50:25;32.1;47.9
43414;DHT22;29013;49.676;8.606;2022-08-14T09:55:58;32.2;47.9
43414;DHT22;29013;49.676;8.606;2022-08-14T10:01:23;32.4;47.8
43414;DHT22;29013;49.676;8.606;2022-08-14T10:06:51;32.6;47.1
43414;DHT22;29013;49.676;8.606;2022-08-14T10:12:18;32.9;46.1
43414;DHT22;29013;49.676;8.606;2022-08-14T10:17:44;32.9;46.4
43414;DHT22;29013;49.676;8.606;2022-08-14T10:23:13;33.3;45.1
43414;DHT22;29013;49.676;8.606;2022-08-14T10:28:41;33.4;43.4
43414;DHT22;29013;49.676;8.606;2022-08-14T10:34:03;33.4;44.1
43414;DHT22;29013;49.676;8.606;2022-08-14T10:39:25;33.2;43.5
43414;DHT22;29013;49.676;8.606;2022-08-14T10:44:47;33.1;44.4
43414;DHT22;29013;49.676;8.606;2022-08-14T10:50:10;33.3;45.1
43414;DHT22;29013;49.676;8.606;2022-08-14T10:55:35;33.3;43.4
43414;DHT22;29013;49.676;8.606;2022-08-14T11:01:00;33.3;42.7
43414;DHT22;29013;49.676;8.606;2022-08-14T11:06:25;33.1;43.0
43414;DHT22;29013;49.676;8.606;2022-08-14T11:11:54;33.1;42.7
43414;DHT22;29013;49.676;8.606;2022-08-14T11:17:18;33.1;42.7
43414;DHT22;29013;49.676;8.606;2022-08-14T11:22:44;32.7;43.9
43414;DHT22;29013;49.676;8.606;2022-08-14T11:28:12;32.8;43.5
43414;DHT22;29013;49.676;8.606;2022-08-14T11:33:40;33.1;42.4
43414;DHT22;29013;49.676;8.606;2022-08-14T11:39:04;33.4;42.3
43414;DHT22;29013;49.676;8.606;2022-08-14T11:44:32;33.3;41.4
43414;DHT22;29013;49.676;8.606;2022-08-14T11:49:59;32.8;42.7
43414;DHT22;29013;49.676;8.606;2022-08-14T11:55:32;33.1;41.8
43414;DHT22;29013;49.676;8.606;2022-08-14T12:00:54;33.4;41.6
43414;DHT22;29013;49.676;8.606;2022-08-14T12:06:17;33.3;40.0
43414;DHT22;29013;49.676;8.606;2022-08-14T12:11:41;33.4;39.7
43414;DHT22;29013;49.676;8.606;2022-08-14T12:17:04;32.8;39.4
43414;DHT22;29013;49.676;8.606;2022-08-14T12:22:36;33.1;40.1
43414;DHT22;29013;49.676;8.606;2022-08-14T12:28:09;33.5;39.8
43414;DHT22;29013;49.676;8.606;2022-08-14T12:33:30;33.6;39.5
43414;DHT22;29013;49.676;8.606;2022-08-14T12:38:54;33.6;38.6
43414;DHT22;29013;49.676;8.606;2022-08-14T12:44:28;33.7;38.6
43414;DHT22;29013;49.676;8.606;2022-08-14T12:49:55;33.7;38.6
43414;DHT22;29013;49.676;8.606;2022-08-14T12:55:27;33.4;39.1
43414;DHT22;29013;49.676;8.606;2022-08-14T13:00:54;33.8;38.1
43414;DHT22;29013;49.676;8.606;2022-08-14T13:06:21;33.7;38.1
43414;DHT22;29013;49.676;8.606;2022-08-14T13:11:49;33.0;39.2
43414;DHT22;29013;49.676;8.606;2022-08-14T13:17:15;33.0;39.8
43414;DHT22;29013;49.676;8.606;2022-08-14T13:22:44;33.6;39.4
43414;DHT22;29013;49.676;8.606;2022-08-14T13:28:12;33.8;38.7
43414;DHT22;29013;49.676;8.606;2022-08-14T13:33:37;33.9;38.7
43414;DHT22;29013;49.676;8.606;2022-08-14T13:39:02;33.4;39.6
43414;DHT22;29013;49.676;8.606;2022-08-14T13:44:28;33.5;39.7
43414;DHT22;29013;49.676;8.606;2022-08-14T13:49:55;33.4;40.1
43414;DHT22;29013;49.676;8.606;2022-08-14T13:55:21;33.6;40.2
43414;DHT22;29013;49.676;8.606;2022-08-14T14:00:43;33.9;39.5
43414;DHT22;29013;49.676;8.606;2022-08-14T14:06:14;33.9;39.4
43414;DHT22;29013;49.676;8.606;2022-08-14T14:11:40;33.7;39.4
43414;DHT22;29013;49.676;8.606;2022-08-14T14:17:09;33.9;39.7
43414;DHT22;29013;49.676;8.606;2022-08-14T14:22:33;33.9;39.9
43414;DHT22;29013;49.676;8.606;2022-08-14T14:28:01;33.8;40.4
43414;DHT22;29013;49.676;8.606;2022-08-14T14:33:24;33.5;40.4
43414;DHT22;29013;49.676;8.606;2022-08-14T14:38:53;33.4;39.5
43414;DHT22;29013;49.676;8.606;2022-08-14T14:44:18;33.4;39.4
43414;DHT22;29013;49.676;8.606;2022-08-14T14:49:45;33.5;38.4
43414;DHT22;29013;49.676;8.606;2022-08-14T14:55:13;33.6;38.9
43414;DHT22;29013;49.676;8.606;2022-08-14T15:00:35;33.6;38.3
43414;DHT22;29013;49.676;8.606;2022-08-14T15:06:01;33.5;38.5
43414;DHT22;29013;49.676;8.606;2022-08-14T15:11:29;33.4;38.4
43414;DHT22;29013;49.676;8.606;2022-08-14T15:16:56;33.4;38.9
43414;DHT22;29013;49.676;8.606;2022-08-14T15:22:24;33.3;38.3
43414;DHT22;29013;49.676;8.606;2022-08-14T15:27:51;33.4;38.4
43414;DHT22;29013;49.676;8.606;2022-08-14T15:33:14;33.4;39.3
43414;DHT22;29013;49.676;8.606;2022-08-14T15:38:41;33.3;38.1
43414;DHT22;29013;49.676;8.606;2022-08-14T15:44:04;33.3;37.6
43414;DHT22;29013;49.676;8.606;2022-08-14T15:49:26;33.2;37.5
43414;DHT22;29013;49.676;8.606;2022-08-14T15:54:52;33.1;38.6
43414;DHT22;29013;49.676;8.606;2022-08-14T16:00:20;33.0;38.3
43414;DHT22;29013;49.676;8.606;2022-08-14T16:05:48;33.0;39.4
43414;DHT22;29013;49.676;8.606;2022-08-14T16:11:17;33.0;38.7
43414;DHT22;29013;49.676;8.606;2022-08-14T16:16:43;32.9;38.1
43414;DHT22;29013;49.676;8.606;2022-08-14T16:22:21;32.8;38.2
43414;DHT22;29013;49.676;8.606;2022-08-14T16:27:46;32.8;38.5
43414;DHT22;29013;49.676;8.606;2022-08-14T16:33:13;32.7;38.2
43414;DHT22;29013;49.676;8.606;2022-08-14T16:38:35;32.7;39.0
43414;DHT22;29013;49.676;8.606;2022-08-14T16:44:02;32.6;39.8
43414;DHT22;29013;49.676;8.606;2022-08-14T16:49:32;32.5;38.9
43414;DHT22;29013;49.676;8.606;2022-08-14T16:54:58;32.5;39.3
43414;DHT22;29013;49.676;8.606;2022-08-14T17:00:31;32.3;42.4
43414;DHT22;29013;49.676;8.606;2022-08-14T17:05:53;32.2;41.3
43414;DHT22;29013;49.676;8.606;2022-08-14T17:11:18;32.0;43.0
43414;DHT22;29013;49.676;8.606;2022-08-14T17:16:44;31.9;43.6
43414;DHT22;29013;49.676;8.606;2022-08-14T17:22:13;31.7;42.7
43414;DHT22;29013;49.676;8.606;2022-08-14T17:27:40;31.6;41.1
43414;DHT22;29013;49.676;8.606;2022-08-14T17:33:18;31.4;45.3
43414;DHT22;29013;49.676;8.606;2022-08-14T17:38:56;31.2;44.5
43414;DHT22;29013;49.676;8.606;2022-08-14T17:44:13;31.0;44.1
43414;DHT22;29013;49.676;8.606;2022-08-14T17:49:44;30.9;44.6
43414;DHT22;29013;49.676;8.606;2022-08-14T17:55:09;30.9;43.9
43414;DHT22;29013;49.676;8.606;2022-08-14T18:00:34;30.7;43.8
43414;DHT22;29013;49.676;8.606;2022-08-14T18:05:59;30.6;44.4
43414;DHT22;29013;49.676;8.606;2022-08-14T18:11:26;30.4;44.1
43414;DHT22;29013;49.676;8.606;2022-08-14T18:16:52;30.2;44.9
43414;DHT22;29013;49.676;8.606;2022-08-14T18:22:14;30.1;45.1
43414;DHT22;29013;49.676;8.606;2022-08-14T18:27:40;29.9;44.9
43414;DHT22;29013;49.676;8.606;2022-08-14T18:33:17;29.8;45.5
43414;DHT22;29013;49.676;8.606;2022-08-14T18:38:39;29.7;46.0
43414;DHT22;29013;49.676;8.606;2022-08-14T18:44:06;29.4;46.2
43414;DHT22;29013;49.676;8.606;2022-08-14T18:49:43;29.1;47.0
43414;DHT22;29013;49.676;8.606;2022-08-14T19:00:58;28.8;48.0
43414;DHT22;29013;49.676;8.606;2022-08-14T19:12:11;28.3;49.1
43414;DHT22;29013;49.676;8.606;2022-08-14T19:17:44;28.2;50.6
43414;DHT22;29013;49.676;8.606;2022-08-14T19:23:16;28.2;49.5
43414;DHT22;29013;49.676;8.606;2022-08-14T19:28:46;28.1;49.2
43414;DHT22;29013;49.676;8.606;2022-08-14T19:34:12;28.0;49.1
43414;DHT22;29013;49.676;8.606;2022-08-14T19:39:52;27.9;49.3
43414;DHT22;29013;49.676;8.606;2022-08-14T19:45:16;27.9;49.1
43414;DHT22;29013;49.676;8.606;2022-08-14T19:50:40;27.8;49.6
43414;DHT22;29013;49.676;8.606;2022-08-14T19:56:05;27.6;49.6
43414;DHT22;29013;49.676;8.606;2022-08-14T20:01:32;27.5;49.9
43414;DHT22;29013;49.676;8.606;2022-08-14T20:06:53;27.4;50.0
43414;DHT22;29013;49.676;8.606;2022-08-14T20:12:20;27.3;50.0
43414;DHT22;29013;49.676;8.606;2022-08-14T20:17:43;27.3;50.0
43414;DHT22;29013;49.676;8.606;2022-08-14T20:23:12;27.1;50.4
43414;DHT22;29013;49.676;8.606;2022-08-14T20:28:36;27.0;50.1
43414;DHT22;29013;49.676;8.606;2022-08-14T20:34:07;26.8;50.5
43414;DHT22;29013;49.676;8.606;2022-08-14T20:39:38;26.6;52.2
43414;DHT22;29013;49.676;8.606;2022-08-14T20:45:04;26.5;52.7
43414;DHT22;29013;49.676;8.606;2022-08-14T20:50:26;26.5;52.9
43414;DHT22;29013;49.676;8.606;2022-08-14T20:55:54;26.3;52.2
43414;DHT22;29013;49.676;8.606;2022-08-14T21:01:37;26.2;52.1
43414;DHT22;29013;49.676;8.606;2022-08-14T21:07:06;26.1;51.7
43414;DHT22;29013;49.676;8.606;2022-08-14T21:12:30;26.1;51.8
43414;DHT22;29013;49.676;8.606;2022-08-14T21:17:55;26.1;51.6
43414;DHT22;29013;49.676;8.606;2022-08-14T21:23:17;26.1;51.5
43414;DHT22;29013;49.676;8.606;2022-08-14T21:28:45;26.0;52.8
43414;DHT22;29013;49.676;8.606;2022-08-14T21:34:09;26.0;53.1
43414;DHT22;29013;49.676;8.606;2022-08-14T21:39:34;25.9;52.2
43414;DHT22;29013;49.676;8.606;2022-08-14T21:44:56;25.8;52.2
43414;DHT22;29013;49.676;8.606;2022-08-14T21:50:21;25.8;52.5
43414;DHT22;29013;49.676;8.606;2022-08-14T21:56:41;25.7;52.4
43414;DHT22;29013;49.676;8.606;2022-08-14T22:02:06;26.0;51.2
43414;DHT22;29013;49.676;8.606;2022-08-14T22:07:28;25.8;51.6
43414;DHT22;29013;49.676;8.606;2022-08-14T22:12:53;25.7;52.2
43414;DHT22;29013;49.676;8.606;2022-08-14T22:18:20;25.7;52.3
43414;DHT22;29013;49.676;8.606;2022-08-14T22:23:47;25.6;52.3
43414;DHT22;29013;49.676;8.606;2022-08-14T22:29:16;25.6;52.6
43414;DHT22;29013;49.676;8.606;2022-08-14T22:34:38;25.6;53.9
43414;DHT22;29013;49.676;8.606;2022-08-14T22:40:04;25.5;52.3
43414;DHT22;29013;49.676;8.606;2022-08-14T22:45:27;25.6;52.9
43414;DHT22;29013;49.676;8.606;2022-08-14T22:50:54;25.5;52.8
43414;DHT22;29013;49.676;8.606;2022-08-14T22:56:21;25.5;52.5
43414;DHT22;29013;49.676;8.606;2022-08-14T23:01:45;25.5;52.4
43414;DHT22;29013;49.676;8.606;2022-08-14T23:07:12;25.5;52.9
43414;DHT22;29013;49.676;8.606;2022-08-14T23:12:43;25.5;52.9
43414;DHT22;29013;49.676;8.606;2022-08-14T23:18:06;25.5;52.8
43414;DHT22;29013;49.676;8.606;2022-08-14T23:23:33;25.5;53.3
43414;DHT22;29013;49.676;8.606;2022-08-14T23:28:57;25.5;53.1
43414;DHT22;29013;49.676;8.606;2022-08-14T23:34:24;25.5;52.5
43414;DHT22;29013;49.676;8.606;2022-08-14T23:39:48;25.5;52.4
43414;DHT22;29013;49.676;8.606;2022-08-14T23:45:16;25.4;53.4
43414;DHT22;29013;49.676;8.606;2022-08-14T23:50:42;25.4;53.0
43414;DHT22;29013;49.676;8.606;2022-08-14T23:56:11;25.3;53.4
